Orbital elements of MIDORI
| Launched | 16 August 1996 |
| Flight ended | – |
| Launch site | Tanegashima Space Center, Japan |
| Owner | Japan |
| NORAD ID | 24277 |
| Alternative names |
ADEOS |
| Date fetched |
Epoch osculation |
Inc. [°] |
Ecc. | RA asc node [hr] |
Arg Peri. [°] |
Mean anom [°] |
Mean motion [rev/day] |
Abs. mag |
| Date fetched |
Epoch osculation |
Inc. [°] |
Ecc. | RA asc node [hr] |
Arg Peri. [°] |
Mean anom [°] |
Mean motion [rev/day] |
Abs. mag |
| 2026 May 06 17:57 | 2026 May 05 10:09:35 | 98.8030 | 0.00008 | 11.9544 | 173.1675 | 186.9518 | 14.30386 | 4.743 |
| 2026 May 05 17:57 | 2026 May 05 10:09:35 | 98.8030 | 0.00008 | 11.9544 | 173.1675 | 186.9518 | 14.30386 | 4.743 |
| 2026 May 04 17:57 | 2026 Apr 30 14:19:16 | 98.8037 | 0.00005 | 11.6287 | 187.3610 | 186.9518 | 14.30386 | 4.743 |
| 2026 May 03 17:57 | 2026 Apr 30 14:19:16 | 98.8037 | 0.00005 | 11.6287 | 187.3610 | 186.9518 | 14.30386 | 4.743 |
| 2026 May 02 17:57 | 2026 Apr 30 14:19:16 | 98.8037 | 0.00005 | 11.6287 | 187.3610 | 186.9518 | 14.30386 | 4.743 |
| 2026 May 01 17:56 | 2026 Apr 30 14:19:16 | 98.8037 | 0.00005 | 11.6287 | 187.3610 | 186.9518 | 14.30386 | 4.743 |
| 2026 Apr 30 17:56 | 2026 Apr 30 14:19:16 | 98.8037 | 0.00005 | 11.6287 | 187.3610 | 186.9518 | 14.30386 | 4.743 |
| 2026 Apr 29 17:57 | 2026 Apr 24 08:54:20 | 98.8047 | 0.00002 | 11.2087 | 221.1240 | 186.9518 | 14.30386 | 4.743 |
| 2026 Apr 28 17:56 | 2026 Apr 24 08:54:20 | 98.8047 | 0.00002 | 11.2087 | 221.1240 | 186.9518 | 14.30386 | 4.743 |
| 2026 Apr 27 17:58 | 2026 Apr 24 08:54:20 | 98.8047 | 0.00002 | 11.2087 | 221.1240 | 186.9518 | 14.30386 | 4.743 |
| 2026 Apr 26 17:58 | 2026 Apr 24 08:54:20 | 98.8047 | 0.00002 | 11.2087 | 221.1240 | 186.9518 | 14.30386 | 4.743 |
| 2026 Apr 25 17:58 | 2026 Apr 24 08:54:20 | 98.8047 | 0.00002 | 11.2087 | 221.1240 | 186.9518 | 14.30386 | 4.743 |
| 2026 Apr 24 17:59 | 2026 Apr 24 08:54:20 | 98.8047 | 0.00002 | 11.2087 | 221.1240 | 186.9518 | 14.30386 | 4.743 |
| 2026 Apr 23 17:57 | 2026 Apr 19 09:42:32 | 98.8057 | 0.00002 | 10.8735 | 328.0069 | 186.9518 | 14.30386 | 4.743 |
| 2026 Apr 22 17:57 | 2026 Apr 19 09:42:32 | 98.8057 | 0.00002 | 10.8735 | 328.0069 | 186.9518 | 14.30386 | 4.743 |
| 2026 Apr 21 17:57 | 2026 Apr 19 09:42:32 | 98.8057 | 0.00002 | 10.8735 | 328.0069 | 186.9518 | 14.30386 | 4.743 |
| 2026 Apr 20 17:57 | 2026 Apr 19 09:42:32 | 98.8057 | 0.00002 | 10.8735 | 328.0069 | 186.9518 | 14.30386 | 4.743 |
| 2026 Apr 19 17:58 | 2026 Apr 19 09:42:32 | 98.8057 | 0.00002 | 10.8735 | 328.0069 | 186.9518 | 14.30386 | 4.743 |
| 2026 Apr 18 17:56 | 2026 Apr 13 00:56:09 | 98.8066 | 0.00006 | 10.4440 | 5.2553 | 186.9518 | 14.30386 | 4.743 |
| 2026 Apr 16 17:57 | 2026 Apr 13 00:56:09 | 98.8066 | 0.00006 | 10.4440 | 5.2553 | 186.9518 | 14.30386 | 4.743 |
| 2026 Apr 14 17:57 | 2026 Apr 13 00:56:09 | 98.8066 | 0.00006 | 10.4440 | 5.2553 | 186.9518 | 14.30386 | 4.743 |
| 2026 Apr 13 17:57 | 2026 Apr 13 00:56:09 | 98.8066 | 0.00006 | 10.4440 | 5.2553 | 186.9518 | 14.30386 | 4.743 |
| 2026 Apr 12 17:57 | 2026 Apr 08 13:29:27 | 98.8073 | 0.00008 | 10.1418 | 16.6425 | 186.9518 | 14.30386 | 4.743 |
| 2026 Apr 11 17:57 | 2026 Apr 08 13:29:27 | 98.8073 | 0.00008 | 10.1418 | 16.6425 | 186.9518 | 14.30386 | 4.743 |
| 2026 Apr 10 17:58 | 2026 Apr 08 13:29:27 | 98.8073 | 0.00008 | 10.1418 | 16.6425 | 186.9518 | 14.30386 | 4.743 |
| 2026 Apr 09 18:01 | 2026 Apr 08 13:29:27 | 98.8073 | 0.00008 | 10.1418 | 16.6425 | 186.9518 | 14.30386 | 4.743 |